Sierra Nevada Aquatic Research Lab (SNARL) Reserve, Santa Monica Mtns, California Weather observations

Data are for 10 minute period ending at time listed.
 Day   Time   Solar   Ave.   Ave.  Ave.  Vector  Max.   Baro.   Total    
  of    of     Rad.   Air    Rel.  Wind   Wind   Wind  Press.  Precip.   
Year   Day            Temp.  Hum.  Speed  Dir.   Gust                    
2014   (PST)  Kw/m2    F      %     mph   deg.    mph    mb.     in.     
-------------------------------------------------------------------------
 297    6:20   0.00   34.0    48    2.4   350     6.7   787.1    0.00 
 297    6:30   0.00   33.2    49    2.8   298     6.0   787.1    0.00 
 297    6:40   0.04   34.2    46    1.9   249     3.7   787.2    0.00 
 297    6:50   0.07   36.1    45    3.4    94     7.5   787.2    0.00 
 297    7:00   0.10   38.4    42    1.9   208     4.7   787.3    0.00 
 297    7:10   0.14   42.0    39    2.8    87     7.7   787.3    0.00 
 297    7:20   0.17   43.5    37    4.1    82     9.3   787.4    0.00 
 297    7:30   0.20   45.8    35    3.1   313     5.9   787.5    0.00 
 297    7:40   0.23   47.2    38    3.8    44     6.9   787.5    0.00 
 297    7:50   0.27   48.4    37    2.4   277     4.6   787.6    0.00 
 297    8:00   0.30   51.5    34    2.6   110     6.8   787.6    0.00 
 297    8:10   0.33   53.0    33    3.2    42     7.1   787.5    0.00 
 297    8:20   0.36   55.3    27    3.7    88     8.5   787.4    0.00 
 297    8:30   0.39   56.8    24    2.3   338     6.9   787.3    0.00 
 297    8:40   0.42   57.5    24    2.9   112     5.9   787.3    0.00 
 297    8:50   0.45   58.5    24    3.2    91     7.7   787.3    0.00 
 297    9:00   0.48   57.5    28    3.8    76     6.9   787.3    0.00 
 297    9:10   0.51   58.0    25    5.1    76     8.4   787.2    0.00 
 297    9:20   0.53   59.1    24    5.0    72     9.3   787.2    0.00 
 297    9:30   0.55   59.1    24    4.8    64     9.7   787.3    0.00 
 297    9:40   0.57   60.6    24    5.1    74    10.4   787.2    0.00 
 297    9:50   0.59   61.2    22    7.6    89    12.0   787.3    0.00 
 297   10:00   0.61   61.7    22    7.8    76    13.7   787.2    0.00 
 297   10:10   0.63   62.4    22    7.7    70    16.0   787.0    0.00 
 297   10:20   0.65   62.2    22   10.8    79    17.8   787.0    0.00 
 297   10:30   0.66   63.3    21   10.5    84    18.8   786.9    0.00 
 297   10:40   0.68   64.8    20    8.8    84    16.0   786.8    0.00 
 297   10:50   0.68   65.5    19    8.5    80    14.2   786.8    0.00 
 297   11:00   0.69   65.5    19   10.2    90    15.1   786.8    0.00 
 297   11:10   0.70   66.2    18    8.2    72    15.5   786.6    0.00 
 297   11:20   0.71   66.7    18    8.5    82    15.8   786.6    0.00 
 297   11:30   0.71   66.8    18    9.2    80    14.1   786.5    0.00 
 297   11:40   0.71   68.0    17    9.4    84    15.1   786.3    0.00 
 297   11:50   0.71   67.9    16   14.1    90    23.7   786.1    0.00 
 297   12:00   0.71   68.2    16   13.4    90    21.6   785.9    0.00 
 297   12:10   0.71   68.4    16   13.7    95    24.6   785.8    0.00 
 297   12:20   0.70   69.2    14   12.2    99    27.4   785.8    0.00 
 297   12:30   0.69   68.5    15   12.2    92    22.5   785.7    0.00 
 297   12:40   0.69   68.1    16   13.9    90    23.8   785.5    0.00 
 297   12:50   0.68   68.6    16   15.6    89    24.8   785.3    0.00 
 297   13:00   0.67   68.1    15   18.3    95    25.7   785.3    0.00 
 297   13:10   0.64   67.7    17   13.9    93    24.5   785.3    0.00 
 297   13:20   0.63   68.4    16   10.4    86    20.8   785.2    0.00 
 297   13:30   0.61   69.1    16   12.1    85    24.8   785.1    0.00 
 297   13:40   0.59   68.9    16   10.1    84    17.0   785.1    0.00 
 297   13:50   0.56   69.8    16    7.1    72    13.1   784.9    0.00 
 297   14:00   0.54   69.9    14   10.3    89    20.8   784.8    0.00 
 297   14:10   0.52   68.9    15   10.3    83    18.6   784.9    0.00 
 297   14:20   0.50   69.3    15    9.4    65    22.9   784.7    0.00 
 297   14:30   0.47   69.2    14   12.8   111    28.5   784.6    0.00 
 297   14:40   0.44   69.1    14   11.9   108    21.0   784.6    0.00 
 297   14:50   0.41   69.7    10   11.5   123    23.9   784.6    0.00 
 297   15:00   0.39   71.2     6    9.3   107    17.2   784.6    0.00 
 297   15:10   0.35   69.9    10   11.3   111    20.1   784.6    0.00 
 297   15:20   0.32   69.0    14    8.4    96    16.8   784.7    0.00 
 297   15:30   0.29   68.3    14   10.0    85    18.3   784.5    0.00 
 297   15:40   0.26   69.1     6    5.9   135    16.3   784.6    0.00 
 297   15:50   0.22   70.2     6    7.6   106    21.3   784.5    0.00 
 297   16:00   0.19   68.9     8    6.2   162    17.3   784.4    0.00 
 297   16:10   0.04   66.8    10    6.0   161    13.1   784.5    0.00 
 297   16:20   0.01   64.3    12    4.7    91     9.5   784.5    0.00 
 297   16:30   0.01   62.0    17    2.9    36     6.9   784.5    0.00 
 297   16:40   0.01   59.6    16    3.3    58     7.5   784.4    0.00 
 297   16:50   0.00   57.9    16    1.3    16     3.5   784.3    0.00 
 297   17:00   0.00   54.0    17    3.9   237     8.1   784.3    0.00 
 297   17:10   0.00   53.5    22    4.4   341     8.8   784.2    0.00 
 297   17:20   0.00   52.1    22    4.8   244     9.0   784.2    0.00 
 297   17:30   0.00   51.1    24    3.5   162     8.6   784.2    0.00 
 297   17:40   0.00   52.9    22    2.7   138     6.7   784.3    0.00 
 297   17:50   0.00   52.1    24    3.7    70     5.8   784.4    0.00 
 297   18:00   0.00   49.1    24    2.6   236     7.7   784.6    0.00 
 297   18:10   0.00   47.0    26    2.3   135     4.4   784.7    0.00 
 297   18:20   0.00   46.9    25    4.0   251     6.4   784.9    0.00 
 297   18:30   0.00   47.2    25    4.6   239     6.9   785.0    0.00 
 297   18:40   0.00   49.3    23    3.9   244     7.5   785.0    0.00 
 297   18:50   0.00   47.2    25    3.3   234     5.8   785.1    0.00 
 297   19:00   0.00   44.7    26    5.2   219     7.5   785.2    0.00 
 297   19:10   0.00   44.1    26    4.7   218     6.9   785.2    0.00 
 297   19:20   0.00   42.2    28    3.8   222     6.1   785.2    0.00 
 297   19:30   0.00   42.3    28    4.6   240     6.0   785.2    0.00 
 297   19:40   0.00   42.1    29    4.4   231     7.5   785.3    0.00 
 297   19:50   0.00   43.7    28    5.3   228     7.7   785.3    0.00 
 297   20:00   0.00   43.4    28    4.0   222     6.9   785.4    0.00 
 297   20:10   0.00   44.0    28    2.9   252     5.8   785.4    0.00 
 297   20:20   0.00   41.6    28    3.3   238     6.1   785.4    0.00 
 297   20:30   0.00   39.3    31    2.8   212     7.0   785.6    0.00 
 297   20:40   0.00   40.5    30    4.4   243     6.7   785.6    0.00 
 297   20:50   0.00   40.2    30    3.5   251     5.9   785.6    0.00 
 297   21:00   0.00   39.9    30    2.8   236     5.9   785.5    0.00 
 297   21:10   0.00   40.0    31    2.0   242     4.5   785.6    0.00 
 297   21:20   0.00   40.3    30    2.3   232     5.6   785.6    0.00 
 297   21:30   0.00   38.9    32    4.4   248     7.1   785.6    0.00 
 297   21:40   0.00   39.2    32    5.0   228     7.1   785.7    0.00 
 297   21:50   0.00   40.8    31    4.8   235     9.3   785.7    0.00 
 297   22:00   0.00   41.4    31    4.0   230     9.0   785.7    0.00 
 297   22:10   0.00   41.0    32    2.9   246     5.9   785.7    0.00 
 297   22:20   0.00   40.3    32    4.1   197     7.7   785.7    0.00 
 297   22:30   0.00   39.4    33    3.9    58     9.9   785.6    0.00 
 297   22:40   0.00   41.8    31    4.3   310    11.8   785.8    0.00 
 297   22:50   0.00   41.8    31    3.6   139     7.2   785.8    0.00 
 297   23:00   0.00   40.7    33    5.6   277    10.0   785.8    0.00 
 297   23:10   0.00   40.1    33    4.1   218    10.4   785.7    0.00 
 297   23:20   0.00   37.6    36    4.1   316     9.9   785.7    0.00 
 297   23:30   0.00   38.2    35    3.1   312     6.0   785.6    0.00 
 297   23:40   0.00   40.1    32    2.8   210     8.0   785.7    0.00 
 297   23:50   0.00   40.8    31    3.0   198     6.6   785.7    0.00 
 298    0:00   0.00   38.5    34    2.2   162     6.5   785.6    0.00 
 298    0:10   0.00   36.6    35    3.4   277     7.2   785.5    0.00 
 298    0:20   0.00   39.8    31    4.3   338     9.2   785.3    0.00 
 298    0:30   0.00   44.6    27    8.9   118    19.3   785.2    0.00 
 298    0:40   0.00   49.8    23   11.2   116    20.6   785.2    0.00 
 298    0:50   0.00   43.9    38    4.4    16     8.5   785.2    0.00 
 298    1:00   0.00   39.1    46    5.5   303    15.6   785.1    0.00 
 298    1:10   0.00   42.3    36    4.0   241    11.2   784.9    0.00 
 298    1:20   0.00   43.0    32    3.6   352     8.1   784.8    0.00 
 298    1:30   0.00   43.0    32    2.8   234     8.5   784.7    0.00 
 298    1:40   0.00   41.9    31    2.2   282     5.3   784.6    0.00 
 298    1:50   0.00   40.6    34    3.1   291     5.7   784.5    0.00 
 298    2:00   0.00   40.8    34    3.4   325    12.5   784.4    0.00 
 298    2:10   0.00   40.9    34    2.1   314     5.1   784.4    0.00 
 298    2:20   0.00   41.5    33    6.3   122    14.0   784.2    0.00 
 298    2:30   0.00   44.8    30    2.9   327     6.4   784.1    0.00 
 298    2:40   0.00   43.0    32    4.2    46     8.1   783.9    0.00 
 298    2:50   0.00   43.3    34    3.8    46     9.7   783.8    0.00 
 298    3:00   0.00   45.4    30    6.1   184    12.6   783.6    0.00 
 298    3:10   0.00   45.7    30    5.7   259    10.0   783.6    0.00 
 298    3:20   0.00   43.3    32    4.3   132     7.6   783.7    0.00 
 298    3:30   0.00   40.5    35    3.2   320     6.9   783.7    0.00 
 298    3:40   0.00   39.6    36    4.6   320     9.3   783.7    0.00 
 298    3:50   0.00   42.9    33    3.6   271     5.8   783.8    0.00 
 298    4:00   0.00   44.6    32    3.9    25    10.4   783.9    0.00 
 298    4:10   0.00   42.1    37    2.5     6     5.6   784.0    0.00 
 298    4:20   0.00   40.6    38    4.2   198    10.2   783.9    0.00 
 298    4:30   0.00   41.3    37    2.2    50     5.5   784.0    0.00 
 298    4:40   0.00   39.2    44    2.9   109     6.9   783.9    0.00 
 298    4:50   0.00   39.8    42    6.5   288    14.5   783.8    0.00 
 298    5:00   0.00   40.9    43    3.4   358     6.4   784.0    0.00 
 298    5:10   0.00   38.3    45    4.1   199     8.9   784.1    0.00 
 298    5:20   0.00   40.2    41    6.2    60    10.9   783.8    0.00 
 298    5:30   0.00   44.5    34    9.0   247    24.0   783.9    0.00 
 298    5:40   0.00   51.9    25    4.3   349     9.3   783.8    0.00 
 298    5:50   0.00   50.1    26    5.5   278    15.7   783.8    0.00 
 298    6:00   0.00   50.1    25    9.6   214    21.7   783.6    0.00 
 298    6:10   0.00   51.7    22    6.9   218    15.6   783.6    0.00 

Return to SNARL Reserve graphs page.


Western Regional Climate Center,wrcc@dri.edu